sensor_id;sensor_type;location;lat;lon;timestamp;P1;durP1;ratioP1;P2;durP2;ratioP2
9559;SDS011;4818;50.860;4.648;2023-04-01T00:01:03;3.03;;;0.30;;
9559;SDS011;4818;50.860;4.648;2023-04-01T00:03:29;2.47;;;0.30;;
9559;SDS011;4818;50.860;4.648;2023-04-01T00:05:57;2.05;;;0.20;;
9559;SDS011;4818;50.860;4.648;2023-04-01T00:08:24;2.28;;;0.30;;
9559;SDS011;4818;50.860;4.648;2023-04-01T00:10:51;1.98;;;0.20;;
9559;SDS011;4818;50.860;4.648;2023-04-01T00:13:18;3.38;;;0.17;;
9559;SDS011;4818;50.860;4.648;2023-04-01T00:15:44;2.35;;;0.20;;
9559;SDS011;4818;50.860;4.648;2023-04-01T00:18:11;10.77;;;0.30;;
9559;SDS011;4818;50.860;4.648;2023-04-01T00:20:38;7.03;;;0.45;;
9559;SDS011;4818;50.860;4.648;2023-04-01T00:23:05;3.92;;;0.70;;
9559;SDS011;4818;50.860;4.648;2023-04-01T00:25:31;4.28;;;0.30;;
9559;SDS011;4818;50.860;4.648;2023-04-01T00:27:57;2.40;;;0.30;;
9559;SDS011;4818;50.860;4.648;2023-04-01T00:30:24;4.13;;;0.25;;
9559;SDS011;4818;50.860;4.648;2023-04-01T00:32:51;4.65;;;0.47;;
9559;SDS011;4818;50.860;4.648;2023-04-01T00:35:18;2.35;;;0.30;;
9559;SDS011;4818;50.860;4.648;2023-04-01T00:37:44;5.10;;;0.43;;
9559;SDS011;4818;50.860;4.648;2023-04-01T00:40:21;5.18;;;0.20;;
9559;SDS011;4818;50.860;4.648;2023-04-01T00:42:48;7.68;;;0.43;;
9559;SDS011;4818;50.860;4.648;2023-04-01T00:47:57;2.65;;;0.10;;
9559;SDS011;4818;50.860;4.648;2023-04-01T00:50:25;7.47;;;0.75;;
9559;SDS011;4818;50.860;4.648;2023-04-01T00:52:52;3.20;;;0.20;;
9559;SDS011;4818;50.860;4.648;2023-04-01T00:55:19;3.30;;;0.38;;
9559;SDS011;4818;50.860;4.648;2023-04-01T00:57:47;4.28;;;0.30;;
9559;SDS011;4818;50.860;4.648;2023-04-01T01:00:14;4.53;;;0.20;;
9559;SDS011;4818;50.860;4.648;2023-04-01T01:02:43;2.08;;;0.20;;
9559;SDS011;4818;50.860;4.648;2023-04-01T01:05:16;0.77;;;0.20;;
9559;SDS011;4818;50.860;4.648;2023-04-01T01:07:57;2.47;;;0.10;;
9559;SDS011;4818;50.860;4.648;2023-04-01T01:10:32;2.33;;;0.45;;
9559;SDS011;4818;50.860;4.648;2023-04-01T01:15:44;2.72;;;0.10;;
9559;SDS011;4818;50.860;4.648;2023-04-01T01:28:44;1.67;;;0.30;;
9559;SDS011;4818;50.860;4.648;2023-04-01T01:36:06;5.70;;;0.20;;
9559;SDS011;4818;50.860;4.648;2023-04-01T01:38:35;1.38;;;0.22;;
9559;SDS011;4818;50.860;4.648;2023-04-01T01:41:02;2.65;;;0.17;;
9559;SDS011;4818;50.860;4.648;2023-04-01T01:43:31;2.67;;;0.20;;
9559;SDS011;4818;50.860;4.648;2023-04-01T01:46:00;1.55;;;0.10;;
9559;SDS011;4818;50.860;4.648;2023-04-01T01:48:31;0.85;;;0.20;;
9559;SDS011;4818;50.860;4.648;2023-04-01T01:50:58;1.20;;;0.10;;
9559;SDS011;4818;50.860;4.648;2023-04-01T01:53:24;3.28;;;0.22;;
9559;SDS011;4818;50.860;4.648;2023-04-01T01:55:51;1.73;;;0.10;;
9559;SDS011;4818;50.860;4.648;2023-04-01T01:58:37;2.90;;;0.43;;
9559;SDS011;4818;50.860;4.648;2023-04-01T02:01:10;2.33;;;0.30;;
9559;SDS011;4818;50.860;4.648;2023-04-01T02:03:38;2.28;;;0.20;;
9559;SDS011;4818;50.860;4.648;2023-04-01T02:06:06;1.45;;;0.20;;
9559;SDS011;4818;50.860;4.648;2023-04-01T02:08:41;4.43;;;0.25;;
9559;SDS011;4818;50.860;4.648;2023-04-01T02:11:09;2.90;;;0.30;;
9559;SDS011;4818;50.860;4.648;2023-04-01T02:13:48;4.13;;;0.40;;
9559;SDS011;4818;50.860;4.648;2023-04-01T02:16:19;1.63;;;0.35;;
9559;SDS011;4818;50.860;4.648;2023-04-01T02:18:46;3.53;;;0.70;;
9559;SDS011;4818;50.860;4.648;2023-04-01T02:21:14;3.88;;;0.90;;
9559;SDS011;4818;50.860;4.648;2023-04-01T02:23:41;3.08;;;0.60;;
9559;SDS011;4818;50.860;4.648;2023-04-01T02:26:10;7.22;;;0.93;;
9559;SDS011;4818;50.860;4.648;2023-04-01T02:28:37;5.40;;;1.40;;
9559;SDS011;4818;50.860;4.648;2023-04-01T02:31:04;5.95;;;1.13;;
9559;SDS011;4818;50.860;4.648;2023-04-01T02:33:31;4.88;;;1.20;;
9559;SDS011;4818;50.860;4.648;2023-04-01T02:35:57;4.72;;;1.60;;
9559;SDS011;4818;50.860;4.648;2023-04-01T02:38:24;5.53;;;1.23;;
9559;SDS011;4818;50.860;4.648;2023-04-01T02:40:52;3.65;;;0.68;;
9559;SDS011;4818;50.860;4.648;2023-04-01T02:43:21;10.32;;;1.38;;
9559;SDS011;4818;50.860;4.648;2023-04-01T02:45:48;3.65;;;0.70;;
9559;SDS011;4818;50.860;4.648;2023-04-01T02:48:14;4.57;;;0.93;;
9559;SDS011;4818;50.860;4.648;2023-04-01T02:50:40;4.53;;;1.58;;
9559;SDS011;4818;50.860;4.648;2023-04-01T02:53:06;4.65;;;1.17;;
9559;SDS011;4818;50.860;4.648;2023-04-01T02:55:33;5.72;;;1.70;;
9559;SDS011;4818;50.860;4.648;2023-04-01T02:57:59;8.15;;;1.30;;
9559;SDS011;4818;50.860;4.648;2023-04-01T03:00:26;11.18;;;1.55;;
9559;SDS011;4818;50.860;4.648;2023-04-01T03:02:52;5.90;;;0.98;;
9559;SDS011;4818;50.860;4.648;2023-04-01T03:05:19;7.95;;;1.00;;
9559;SDS011;4818;50.860;4.648;2023-04-01T03:07:46;6.47;;;1.30;;
9559;SDS011;4818;50.860;4.648;2023-04-01T03:10:12;6.90;;;1.23;;
9559;SDS011;4818;50.860;4.648;2023-04-01T03:12:39;5.60;;;0.88;;
9559;SDS011;4818;50.860;4.648;2023-04-01T03:15:05;6.72;;;1.02;;
9559;SDS011;4818;50.860;4.648;2023-04-01T03:17:32;7.53;;;0.90;;
9559;SDS011;4818;50.860;4.648;2023-04-01T03:19:58;7.32;;;0.80;;
9559;SDS011;4818;50.860;4.648;2023-04-01T03:22:24;5.20;;;1.08;;
9559;SDS011;4818;50.860;4.648;2023-04-01T03:24:50;9.98;;;1.10;;
9559;SDS011;4818;50.860;4.648;2023-04-01T03:27:17;8.73;;;1.35;;
9559;SDS011;4818;50.860;4.648;2023-04-01T03:29:43;7.38;;;0.85;;
9559;SDS011;4818;50.860;4.648;2023-04-01T03:32:09;5.78;;;1.02;;
9559;SDS011;4818;50.860;4.648;2023-04-01T03:34:35;3.67;;;0.70;;
9559;SDS011;4818;50.860;4.648;2023-04-01T03:37:01;7.63;;;1.25;;
9559;SDS011;4818;50.860;4.648;2023-04-01T03:39:28;6.78;;;1.27;;
9559;SDS011;4818;50.860;4.648;2023-04-01T03:41:54;4.65;;;1.08;;
9559;SDS011;4818;50.860;4.648;2023-04-01T03:44:20;6.70;;;1.20;;
9559;SDS011;4818;50.860;4.648;2023-04-01T03:46:46;7.63;;;2.53;;
9559;SDS011;4818;50.860;4.648;2023-04-01T03:49:12;5.05;;;2.33;;
9559;SDS011;4818;50.860;4.648;2023-04-01T03:51:39;7.38;;;2.60;;
9559;SDS011;4818;50.860;4.648;2023-04-01T03:54:06;6.20;;;3.05;;
9559;SDS011;4818;50.860;4.648;2023-04-01T03:56:32;10.38;;;3.75;;
9559;SDS011;4818;50.860;4.648;2023-04-01T03:59:01;8.13;;;3.22;;
9559;SDS011;4818;50.860;4.648;2023-04-01T04:01:27;6.70;;;2.70;;
9559;SDS011;4818;50.860;4.648;2023-04-01T04:03:54;8.70;;;3.03;;
9559;SDS011;4818;50.860;4.648;2023-04-01T04:06:21;12.45;;;3.00;;
9559;SDS011;4818;50.860;4.648;2023-04-01T04:08:48;17.65;;;4.60;;
9559;SDS011;4818;50.860;4.648;2023-04-01T04:11:15;10.32;;;4.13;;
9559;SDS011;4818;50.860;4.648;2023-04-01T04:13:41;10.63;;;3.20;;
9559;SDS011;4818;50.860;4.648;2023-04-01T04:16:08;12.05;;;3.75;;
9559;SDS011;4818;50.860;4.648;2023-04-01T04:18:35;7.70;;;3.75;;
9559;SDS011;4818;50.860;4.648;2023-04-01T04:21:01;11.48;;;3.78;;
9559;SDS011;4818;50.860;4.648;2023-04-01T04:23:28;14.95;;;3.88;;
9559;SDS011;4818;50.860;4.648;2023-04-01T04:25:56;16.40;;;4.75;;
9559;SDS011;4818;50.860;4.648;2023-04-01T04:28:22;9.80;;;3.85;;
9559;SDS011;4818;50.860;4.648;2023-04-01T04:30:49;9.98;;;4.05;;
9559;SDS011;4818;50.860;4.648;2023-04-01T04:33:15;15.55;;;4.13;;
9559;SDS011;4818;50.860;4.648;2023-04-01T04:35:41;11.55;;;4.35;;
9559;SDS011;4818;50.860;4.648;2023-04-01T04:38:07;16.38;;;3.92;;
9559;SDS011;4818;50.860;4.648;2023-04-01T04:40:35;15.60;;;4.60;;
9559;SDS011;4818;50.860;4.648;2023-04-01T04:43:02;14.00;;;3.28;;
9559;SDS011;4818;50.860;4.648;2023-04-01T04:45:29;9.75;;;3.38;;
9559;SDS011;4818;50.860;4.648;2023-04-01T04:47:55;12.98;;;3.03;;
9559;SDS011;4818;50.860;4.648;2023-04-01T04:50:22;7.63;;;3.00;;
9559;SDS011;4818;50.860;4.648;2023-04-01T04:52:49;8.32;;;2.53;;
9559;SDS011;4818;50.860;4.648;2023-04-01T04:55:15;10.02;;;2.50;;
9559;SDS011;4818;50.860;4.648;2023-04-01T04:57:41;6.45;;;2.58;;
9559;SDS011;4818;50.860;4.648;2023-04-01T05:00:07;8.55;;;2.17;;
9559;SDS011;4818;50.860;4.648;2023-04-01T05:02:35;7.65;;;1.70;;
9559;SDS011;4818;50.860;4.648;2023-04-01T05:05:01;4.07;;;1.58;;
9559;SDS011;4818;50.860;4.648;2023-04-01T05:07:28;8.52;;;1.10;;
9559;SDS011;4818;50.860;4.648;2023-04-01T05:09:54;4.80;;;1.30;;
9559;SDS011;4818;50.860;4.648;2023-04-01T05:12:20;4.43;;;0.95;;
9559;SDS011;4818;50.860;4.648;2023-04-01T05:14:46;5.95;;;1.00;;
9559;SDS011;4818;50.860;4.648;2023-04-01T05:17:13;4.85;;;1.13;;
9559;SDS011;4818;50.860;4.648;2023-04-01T05:19:39;3.83;;;1.20;;
9559;SDS011;4818;50.860;4.648;2023-04-01T05:22:05;4.38;;;1.48;;
9559;SDS011;4818;50.860;4.648;2023-04-01T05:24:32;2.05;;;0.60;;
9559;SDS011;4818;50.860;4.648;2023-04-01T05:26:58;4.55;;;1.00;;
9559;SDS011;4818;50.860;4.648;2023-04-01T05:29:25;4.28;;;0.70;;
9559;SDS011;4818;50.860;4.648;2023-04-01T05:31:52;4.82;;;1.13;;
9559;SDS011;4818;50.860;4.648;2023-04-01T05:34:18;1.55;;;0.60;;
9559;SDS011;4818;50.860;4.648;2023-04-01T05:36:44;1.73;;;0.40;;
9559;SDS011;4818;50.860;4.648;2023-04-01T05:39:11;3.55;;;0.52;;
9559;SDS011;4818;50.860;4.648;2023-04-01T05:41:37;2.65;;;0.82;;
9559;SDS011;4818;50.860;4.648;2023-04-01T05:44:04;3.58;;;0.60;;
9559;SDS011;4818;50.860;4.648;2023-04-01T05:46:31;1.30;;;0.60;;
9559;SDS011;4818;50.860;4.648;2023-04-01T05:48:57;2.67;;;0.95;;
9559;SDS011;4818;50.860;4.648;2023-04-01T05:51:23;7.75;;;1.00;;
9559;SDS011;4818;50.860;4.648;2023-04-01T05:53:50;3.00;;;1.23;;
9559;SDS011;4818;50.860;4.648;2023-04-01T05:56:16;3.35;;;1.15;;
9559;SDS011;4818;50.860;4.648;2023-04-01T05:58:42;4.38;;;1.55;;
9559;SDS011;4818;50.860;4.648;2023-04-01T06:01:09;5.43;;;1.70;;
9559;SDS011;4818;50.860;4.648;2023-04-01T06:03:36;6.72;;;1.55;;
9559;SDS011;4818;50.860;4.648;2023-04-01T06:06:02;6.13;;;1.90;;
9559;SDS011;4818;50.860;4.648;2023-04-01T06:08:29;4.13;;;1.85;;
9559;SDS011;4818;50.860;4.648;2023-04-01T06:16:28;4.53;;;2.00;;
9559;SDS011;4818;50.860;4.648;2023-04-01T06:24:17;8.15;;;2.70;;
9559;SDS011;4818;50.860;4.648;2023-04-01T06:34:20;10.65;;;3.08;;
9559;SDS011;4818;50.860;4.648;2023-04-01T06:36:56;8.27;;;3.53;;
9559;SDS011;4818;50.860;4.648;2023-04-01T06:50:15;8.20;;;3.58;;
9559;SDS011;4818;50.860;4.648;2023-04-01T06:54:46;8.68;;;3.45;;
9559;SDS011;4818;50.860;4.648;2023-04-01T06:57:19;6.00;;;3.15;;
9559;SDS011;4818;50.860;4.648;2023-04-01T06:59:46;6.85;;;3.47;;
9559;SDS011;4818;50.860;4.648;2023-04-01T07:02:23;7.03;;;3.15;;
9559;SDS011;4818;50.860;4.648;2023-04-01T07:04:51;8.23;;;2.38;;
9559;SDS011;4818;50.860;4.648;2023-04-01T07:07:21;4.65;;;2.53;;
9559;SDS011;4818;50.860;4.648;2023-04-01T07:09:54;6.82;;;2.70;;
9559;SDS011;4818;50.860;4.648;2023-04-01T07:14:57;6.22;;;2.80;;
9559;SDS011;4818;50.860;4.648;2023-04-01T07:17:28;12.38;;;4.07;;
9559;SDS011;4818;50.860;4.648;2023-04-01T07:19:58;6.28;;;2.83;;
9559;SDS011;4818;50.860;4.648;2023-04-01T07:24:54;6.78;;;3.05;;
9559;SDS011;4818;50.860;4.648;2023-04-01T07:27:23;7.80;;;2.85;;
9559;SDS011;4818;50.860;4.648;2023-04-01T07:29:49;5.93;;;2.88;;
9559;SDS011;4818;50.860;4.648;2023-04-01T07:34:51;5.57;;;3.20;;
9559;SDS011;4818;50.860;4.648;2023-04-01T07:40:34;5.38;;;1.80;;
9559;SDS011;4818;50.860;4.648;2023-04-01T07:42:59;3.28;;;1.27;;
9559;SDS011;4818;50.860;4.648;2023-04-01T07:50:31;6.47;;;0.63;;
9559;SDS011;4818;50.860;4.648;2023-04-01T07:56:20;5.13;;;0.60;;
9559;SDS011;4818;50.860;4.648;2023-04-01T08:04:00;2.60;;;0.73;;
9559;SDS011;4818;50.860;4.648;2023-04-01T08:06:26;1.10;;;0.10;;
9559;SDS011;4818;50.860;4.648;2023-04-01T08:21:25;0.20;;;0.03;;
9559;SDS011;4818;50.860;4.648;2023-04-01T08:23:57;3.13;;;0.10;;
9559;SDS011;4818;50.860;4.648;2023-04-01T08:29:01;2.80;;;0.20;;
9559;SDS011;4818;50.860;4.648;2023-04-01T08:31:34;5.57;;;0.50;;
9559;SDS011;4818;50.860;4.648;2023-04-01T08:34:03;2.50;;;0.30;;
9559;SDS011;4818;50.860;4.648;2023-04-01T08:36:31;1.13;;;0.20;;
9559;SDS011;4818;50.860;4.648;2023-04-01T08:39:01;1.42;;;0.20;;
9559;SDS011;4818;50.860;4.648;2023-04-01T08:44:20;4.18;;;0.47;;
9559;SDS011;4818;50.860;4.648;2023-04-01T08:59:58;1.83;;;0.30;;
9559;SDS011;4818;50.860;4.648;2023-04-01T09:28:18;3.42;;;0.30;;
9559;SDS011;4818;50.860;4.648;2023-04-01T09:31:07;1.67;;;0.20;;
9559;SDS011;4818;50.860;4.648;2023-04-01T09:38:47;1.35;;;0.38;;
9559;SDS011;4818;50.860;4.648;2023-04-01T09:46:24;0.57;;;0.20;;
9559;SDS011;4818;50.860;4.648;2023-04-01T09:49:18;1.42;;;0.20;;
9559;SDS011;4818;50.860;4.648;2023-04-01T09:52:18;1.60;;;0.30;;
9559;SDS011;4818;50.860;4.648;2023-04-01T10:07:27;1.95;;;0.45;;
9559;SDS011;4818;50.860;4.648;2023-04-01T10:18:10;1.65;;;0.60;;
9559;SDS011;4818;50.860;4.648;2023-04-01T10:55:11;2.70;;;0.50;;
9559;SDS011;4818;50.860;4.648;2023-04-01T10:57:58;2.88;;;0.90;;
9559;SDS011;4818;50.860;4.648;2023-04-01T11:03:33;4.05;;;0.50;;
9559;SDS011;4818;50.860;4.648;2023-04-01T11:27:21;0.60;;;0.17;;
9559;SDS011;4818;50.860;4.648;2023-04-01T11:32:26;1.15;;;0.17;;
9559;SDS011;4818;50.860;4.648;2023-04-01T11:34:57;1.15;;;0.10;;
9559;SDS011;4818;50.860;4.648;2023-04-01T11:40:05;1.13;;;0.10;;
9559;SDS011;4818;50.860;4.648;2023-04-01T11:50:34;0.82;;;0.00;;
9559;SDS011;4818;50.860;4.648;2023-04-01T11:53:42;2.72;;;0.10;;
9559;SDS011;4818;50.860;4.648;2023-04-01T12:01:13;2.55;;;0.22;;
9559;SDS011;4818;50.860;4.648;2023-04-01T12:04:05;0.90;;;0.63;;
9559;SDS011;4818;50.860;4.648;2023-04-01T12:09:35;2.40;;;0.30;;
9559;SDS011;4818;50.860;4.648;2023-04-01T12:14:53;1.65;;;0.32;;
9559;SDS011;4818;50.860;4.648;2023-04-01T12:17:29;1.63;;;0.28;;
9559;SDS011;4818;50.860;4.648;2023-04-01T12:20:22;2.28;;;0.30;;
9559;SDS011;4818;50.860;4.648;2023-04-01T12:22:59;3.08;;;0.50;;
9559;SDS011;4818;50.860;4.648;2023-04-01T12:25:46;0.90;;;0.30;;
9559;SDS011;4818;50.860;4.648;2023-04-01T12:32:12;2.38;;;0.50;;
9559;SDS011;4818;50.860;4.648;2023-04-01T12:37:07;2.50;;;0.30;;
9559;SDS011;4818;50.860;4.648;2023-04-01T12:39:51;2.80;;;0.40;;
9559;SDS011;4818;50.860;4.648;2023-04-01T12:45:23;5.88;;;0.50;;
9559;SDS011;4818;50.860;4.648;2023-04-01T12:48:05;1.08;;;0.30;;
9559;SDS011;4818;50.860;4.648;2023-04-01T12:53:33;3.50;;;0.73;;
9559;SDS011;4818;50.860;4.648;2023-04-01T12:56:07;4.03;;;0.40;;
9559;SDS011;4818;50.860;4.648;2023-04-01T13:20:21;1.02;;;0.30;;
9559;SDS011;4818;50.860;4.648;2023-04-01T13:22:54;3.75;;;0.60;;
9559;SDS011;4818;50.860;4.648;2023-04-01T13:28:12;1.23;;;0.30;;
9559;SDS011;4818;50.860;4.648;2023-04-01T13:33:40;2.10;;;0.20;;
9559;SDS011;4818;50.860;4.648;2023-04-01T13:36:19;3.45;;;0.30;;
9559;SDS011;4818;50.860;4.648;2023-04-01T13:44:17;0.80;;;0.20;;
9559;SDS011;4818;50.860;4.648;2023-04-01T13:54:40;1.35;;;0.20;;
9559;SDS011;4818;50.860;4.648;2023-04-01T13:57:41;1.25;;;0.17;;
9559;SDS011;4818;50.860;4.648;2023-04-01T14:08:03;1.92;;;0.20;;
9559;SDS011;4818;50.860;4.648;2023-04-01T14:13:09;0.40;;;0.10;;
9559;SDS011;4818;50.860;4.648;2023-04-01T14:15:42;2.25;;;0.25;;
9559;SDS011;4818;50.860;4.648;2023-04-01T14:29:36;1.77;;;0.45;;
9559;SDS011;4818;50.860;4.648;2023-04-01T14:39:12;2.33;;;0.45;;
9559;SDS011;4818;50.860;4.648;2023-04-01T14:47:04;3.25;;;0.60;;
9559;SDS011;4818;50.860;4.648;2023-04-01T14:49:42;1.17;;;0.43;;
9559;SDS011;4818;50.860;4.648;2023-04-01T14:52:14;2.38;;;0.70;;
9559;SDS011;4818;50.860;4.648;2023-04-01T14:54:42;4.07;;;0.70;;
9559;SDS011;4818;50.860;4.648;2023-04-01T14:59:41;1.55;;;0.40;;
9559;SDS011;4818;50.860;4.648;2023-04-01T15:12:33;0.60;;;0.20;;
9559;SDS011;4818;50.860;4.648;2023-04-01T15:25:21;2.28;;;0.25;;
9559;SDS011;4818;50.860;4.648;2023-04-01T15:35:42;5.15;;;0.60;;
9559;SDS011;4818;50.860;4.648;2023-04-01T15:41:03;1.33;;;0.43;;
9559;SDS011;4818;50.860;4.648;2023-04-01T15:43:37;0.75;;;0.40;;
9559;SDS011;4818;50.860;4.648;2023-04-01T15:53:50;2.15;;;0.80;;
9559;SDS011;4818;50.860;4.648;2023-04-01T15:56:25;0.73;;;0.30;;
9559;SDS011;4818;50.860;4.648;2023-04-01T16:01:26;1.17;;;0.40;;
9559;SDS011;4818;50.860;4.648;2023-04-01T16:06:30;3.17;;;0.50;;
9559;SDS011;4818;50.860;4.648;2023-04-01T16:09:12;1.83;;;0.30;;
9559;SDS011;4818;50.860;4.648;2023-04-01T16:11:53;0.82;;;0.20;;
9559;SDS011;4818;50.860;4.648;2023-04-01T16:14:25;1.90;;;0.23;;
9559;SDS011;4818;50.860;4.648;2023-04-01T16:19:28;0.73;;;0.38;;
9559;SDS011;4818;50.860;4.648;2023-04-01T16:22:00;3.67;;;0.43;;
9559;SDS011;4818;50.860;4.648;2023-04-01T16:26:58;2.72;;;0.20;;
9559;SDS011;4818;50.860;4.648;2023-04-01T16:34:44;0.50;;;0.20;;
9559;SDS011;4818;50.860;4.648;2023-04-01T16:37:17;0.38;;;0.20;;
9559;SDS011;4818;50.860;4.648;2023-04-01T16:42:50;2.38;;;0.20;;
9559;SDS011;4818;50.860;4.648;2023-04-01T16:47:50;1.13;;;0.20;;
9559;SDS011;4818;50.860;4.648;2023-04-01T16:50:23;4.03;;;0.43;;
9559;SDS011;4818;50.860;4.648;2023-04-01T16:52:55;0.30;;;0.15;;
9559;SDS011;4818;50.860;4.648;2023-04-01T16:55:33;1.00;;;0.20;;
9559;SDS011;4818;50.860;4.648;2023-04-01T16:58:00;1.27;;;0.25;;
9559;SDS011;4818;50.860;4.648;2023-04-01T17:00:28;0.95;;;0.30;;
9559;SDS011;4818;50.860;4.648;2023-04-01T17:05:50;1.63;;;0.25;;
9559;SDS011;4818;50.860;4.648;2023-04-01T17:08:28;1.30;;;0.30;;
9559;SDS011;4818;50.860;4.648;2023-04-01T17:10:59;0.77;;;0.30;;
9559;SDS011;4818;50.860;4.648;2023-04-01T17:38:02;1.25;;;0.57;;
9559;SDS011;4818;50.860;4.648;2023-04-01T17:45:28;3.03;;;0.50;;
9559;SDS011;4818;50.860;4.648;2023-04-01T17:47:59;1.98;;;0.60;;
9559;SDS011;4818;50.860;4.648;2023-04-01T17:50:30;2.58;;;0.98;;
9559;SDS011;4818;50.860;4.648;2023-04-01T17:53:11;3.88;;;0.73;;
9559;SDS011;4818;50.860;4.648;2023-04-01T17:58:19;5.32;;;1.15;;
9559;SDS011;4818;50.860;4.648;2023-04-01T18:11:25;2.55;;;0.93;;
9559;SDS011;4818;50.860;4.648;2023-04-01T18:14:13;5.32;;;0.85;;
9559;SDS011;4818;50.860;4.648;2023-04-01T18:16:48;2.53;;;0.98;;
9559;SDS011;4818;50.860;4.648;2023-04-01T18:21:48;1.80;;;1.20;;
9559;SDS011;4818;50.860;4.648;2023-04-01T18:27:00;1.73;;;0.93;;
9559;SDS011;4818;50.860;4.648;2023-04-01T18:29:31;2.40;;;1.10;;
9559;SDS011;4818;50.860;4.648;2023-04-01T18:32:42;1.85;;;1.17;;
9559;SDS011;4818;50.860;4.648;2023-04-01T18:34:53;3.75;;;1.58;;
9559;SDS011;4818;50.860;4.648;2023-04-01T18:40:24;7.97;;;2.78;;
9559;SDS011;4818;50.860;4.648;2023-04-01T18:45:28;6.20;;;3.75;;
9559;SDS011;4818;50.860;4.648;2023-04-01T18:50:30;6.70;;;4.38;;
9559;SDS011;4818;50.860;4.648;2023-04-01T18:53:19;6.35;;;4.93;;
9559;SDS011;4818;50.860;4.648;2023-04-01T18:55:58;5.43;;;4.20;;
9559;SDS011;4818;50.860;4.648;2023-04-01T19:01:05;6.80;;;5.43;;
9559;SDS011;4818;50.860;4.648;2023-04-01T19:03:39;7.70;;;5.97;;
9559;SDS011;4818;50.860;4.648;2023-04-01T19:11:54;11.98;;;5.95;;
9559;SDS011;4818;50.860;4.648;2023-04-01T19:16:55;10.48;;;6.15;;
9559;SDS011;4818;50.860;4.648;2023-04-01T19:22:21;8.35;;;4.63;;
9559;SDS011;4818;50.860;4.648;2023-04-01T19:27:35;8.88;;;5.93;;
9559;SDS011;4818;50.860;4.648;2023-04-01T19:30:25;12.48;;;6.88;;
9559;SDS011;4818;50.860;4.648;2023-04-01T19:37:57;11.52;;;7.30;;
9559;SDS011;4818;50.860;4.648;2023-04-01T19:40:37;11.73;;;7.07;;
9559;SDS011;4818;50.860;4.648;2023-04-01T19:48:44;16.95;;;7.68;;
9559;SDS011;4818;50.860;4.648;2023-04-01T19:56:22;13.57;;;5.30;;
9559;SDS011;4818;50.860;4.648;2023-04-01T19:59:10;9.88;;;5.97;;
9559;SDS011;4818;50.860;4.648;2023-04-01T20:01:41;14.18;;;6.20;;
9559;SDS011;4818;50.860;4.648;2023-04-01T20:04:14;11.15;;;5.90;;
9559;SDS011;4818;50.860;4.648;2023-04-01T20:14:57;14.18;;;5.93;;
9559;SDS011;4818;50.860;4.648;2023-04-01T20:17:25;12.20;;;6.43;;
9559;SDS011;4818;50.860;4.648;2023-04-01T20:20:13;10.02;;;5.43;;
9559;SDS011;4818;50.860;4.648;2023-04-01T20:25:12;14.43;;;5.88;;
9559;SDS011;4818;50.860;4.648;2023-04-01T20:27:41;12.32;;;7.00;;
9559;SDS011;4818;50.860;4.648;2023-04-01T20:35:37;15.23;;;7.68;;
9559;SDS011;4818;50.860;4.648;2023-04-01T20:38:11;14.93;;;7.45;;
9559;SDS011;4818;50.860;4.648;2023-04-01T20:40:43;15.82;;;8.20;;
9559;SDS011;4818;50.860;4.648;2023-04-01T20:43:28;15.18;;;7.75;;
9559;SDS011;4818;50.860;4.648;2023-04-01T20:51:16;21.38;;;9.77;;
9559;SDS011;4818;50.860;4.648;2023-04-01T20:53:42;17.23;;;8.25;;
9559;SDS011;4818;50.860;4.648;2023-04-01T21:04:36;28.15;;;14.25;;
9559;SDS011;4818;50.860;4.648;2023-04-01T21:07:15;25.58;;;14.10;;
9559;SDS011;4818;50.860;4.648;2023-04-01T21:09:55;28.02;;;13.48;;
9559;SDS011;4818;50.860;4.648;2023-04-01T21:12:30;29.70;;;14.07;;
9559;SDS011;4818;50.860;4.648;2023-04-01T21:23:14;29.33;;;15.35;;
9559;SDS011;4818;50.860;4.648;2023-04-01T21:28:12;30.20;;;12.98;;
9559;SDS011;4818;50.860;4.648;2023-04-01T21:33:32;27.85;;;13.98;;
9559;SDS011;4818;50.860;4.648;2023-04-01T21:38:43;25.27;;;12.80;;
9559;SDS011;4818;50.860;4.648;2023-04-01T21:54:31;22.13;;;11.45;;
9559;SDS011;4818;50.860;4.648;2023-04-01T22:05:27;18.25;;;10.43;;
9559;SDS011;4818;50.860;4.648;2023-04-01T22:13:19;20.95;;;10.95;;
9559;SDS011;4818;50.860;4.648;2023-04-01T22:23:41;25.10;;;13.85;;
9559;SDS011;4818;50.860;4.648;2023-04-01T22:28:52;25.08;;;14.02;;
9559;SDS011;4818;50.860;4.648;2023-04-01T22:31:26;31.02;;;16.75;;
9559;SDS011;4818;50.860;4.648;2023-04-01T22:39:08;28.13;;;16.60;;
9559;SDS011;4818;50.860;4.648;2023-04-01T22:49:29;25.25;;;14.98;;
9559;SDS011;4818;50.860;4.648;2023-04-01T22:52:10;22.00;;;14.20;;
9559;SDS011;4818;50.860;4.648;2023-04-01T22:54:42;26.05;;;15.18;;
9559;SDS011;4818;50.860;4.648;2023-04-01T22:57:12;27.33;;;15.93;;
9559;SDS011;4818;50.860;4.648;2023-04-01T22:59:40;25.02;;;14.85;;
9559;SDS011;4818;50.860;4.648;2023-04-01T23:04:40;24.02;;;14.07;;
9559;SDS011;4818;50.860;4.648;2023-04-01T23:07:23;19.85;;;12.38;;
9559;SDS011;4818;50.860;4.648;2023-04-01T23:09:55;23.60;;;12.98;;
9559;SDS011;4818;50.860;4.648;2023-04-01T23:12:22;19.83;;;11.75;;
9559;SDS011;4818;50.860;4.648;2023-04-01T23:14:50;18.58;;;11.73;;
9559;SDS011;4818;50.860;4.648;2023-04-01T23:25:32;16.55;;;10.13;;
9559;SDS011;4818;50.860;4.648;2023-04-01T23:33:11;15.63;;;10.57;;
9559;SDS011;4818;50.860;4.648;2023-04-01T23:36:25;20.27;;;11.98;;
9559;SDS011;4818;50.860;4.648;2023-04-01T23:38:34;19.58;;;11.18;;
9559;SDS011;4818;50.860;4.648;2023-04-01T23:41:00;19.85;;;12.20;;
9559;SDS011;4818;50.860;4.648;2023-04-01T23:43:28;21.17;;;12.95;;
9559;SDS011;4818;50.860;4.648;2023-04-01T23:45:56;26.73;;;14.85;;
9559;SDS011;4818;50.860;4.648;2023-04-01T23:48:30;21.90;;;14.20;;
9559;SDS011;4818;50.860;4.648;2023-04-01T23:50:58;27.75;;;15.00;;
9559;SDS011;4818;50.860;4.648;2023-04-01T23:53:25;25.55;;;13.77;;
9559;SDS011;4818;50.860;4.648;2023-04-01T23:55:51;23.45;;;13.48;;
9559;SDS011;4818;50.860;4.648;2023-04-01T23:58:22;22.35;;;13.50;;
